sensor_id;sensor_type;location;lat;lon;timestamp;P1;durP1;ratioP1;P2;durP2;ratioP2
49910;SDS011;35803;53.096;5.844;2023-04-15T00:00:48;7.57;;;3.35;;
49910;SDS011;35803;53.096;5.844;2023-04-15T00:03:15;4.97;;;3.28;;
49910;SDS011;35803;53.096;5.844;2023-04-15T00:05:41;9.10;;;3.63;;
49910;SDS011;35803;53.096;5.844;2023-04-15T00:08:07;8.27;;;3.88;;
49910;SDS011;35803;53.096;5.844;2023-04-15T00:10:33;8.85;;;3.45;;
49910;SDS011;35803;53.096;5.844;2023-04-15T00:13:08;5.82;;;3.50;;
49910;SDS011;35803;53.096;5.844;2023-04-15T00:15:34;6.25;;;3.70;;
49910;SDS011;35803;53.096;5.844;2023-04-15T00:18:00;8.52;;;3.67;;
49910;SDS011;35803;53.096;5.844;2023-04-15T00:20:26;7.28;;;3.60;;
49910;SDS011;35803;53.096;5.844;2023-04-15T00:22:52;11.10;;;4.05;;
49910;SDS011;35803;53.096;5.844;2023-04-15T00:25:17;8.60;;;4.20;;
49910;SDS011;35803;53.096;5.844;2023-04-15T00:27:43;7.50;;;3.70;;
49910;SDS011;35803;53.096;5.844;2023-04-15T00:30:16;7.30;;;3.90;;
49910;SDS011;35803;53.096;5.844;2023-04-15T00:32:41;8.13;;;3.95;;
49910;SDS011;35803;53.096;5.844;2023-04-15T00:35:07;5.55;;;3.40;;
49910;SDS011;35803;53.096;5.844;2023-04-15T00:37:33;8.18;;;3.75;;
49910;SDS011;35803;53.096;5.844;2023-04-15T00:39:59;7.45;;;3.72;;
49910;SDS011;35803;53.096;5.844;2023-04-15T00:42:25;6.43;;;3.88;;
49910;SDS011;35803;53.096;5.844;2023-04-15T00:44:52;6.25;;;3.72;;
49910;SDS011;35803;53.096;5.844;2023-04-15T00:47:24;7.13;;;3.45;;
49910;SDS011;35803;53.096;5.844;2023-04-15T00:49:51;7.35;;;3.63;;
49910;SDS011;35803;53.096;5.844;2023-04-15T00:52:16;11.05;;;3.58;;
49910;SDS011;35803;53.096;5.844;2023-04-15T00:54:42;5.10;;;3.50;;
49910;SDS011;35803;53.096;5.844;2023-04-15T00:57:07;7.18;;;4.03;;
49910;SDS011;35803;53.096;5.844;2023-04-15T00:59:36;6.93;;;3.40;;
49910;SDS011;35803;53.096;5.844;2023-04-15T01:02:01;9.75;;;3.92;;
49910;SDS011;35803;53.096;5.844;2023-04-15T01:04:33;7.38;;;4.05;;
49910;SDS011;35803;53.096;5.844;2023-04-15T01:06:58;9.82;;;4.25;;
49910;SDS011;35803;53.096;5.844;2023-04-15T01:09:24;7.03;;;3.80;;
49910;SDS011;35803;53.096;5.844;2023-04-15T01:11:49;8.07;;;4.15;;
49910;SDS011;35803;53.096;5.844;2023-04-15T01:14:15;8.93;;;4.10;;
49910;SDS011;35803;53.096;5.844;2023-04-15T01:16:41;7.82;;;3.95;;
49910;SDS011;35803;53.096;5.844;2023-04-15T01:19:07;6.50;;;3.92;;
49910;SDS011;35803;53.096;5.844;2023-04-15T01:21:40;8.48;;;4.10;;
49910;SDS011;35803;53.096;5.844;2023-04-15T01:24:07;6.72;;;4.40;;
49910;SDS011;35803;53.096;5.844;2023-04-15T01:26:37;9.75;;;4.55;;
49910;SDS011;35803;53.096;5.844;2023-04-15T01:29:03;8.45;;;4.05;;
49910;SDS011;35803;53.096;5.844;2023-04-15T01:31:28;7.88;;;4.43;;
49910;SDS011;35803;53.096;5.844;2023-04-15T01:33:54;7.95;;;4.47;;
49910;SDS011;35803;53.096;5.844;2023-04-15T01:36:19;8.68;;;4.65;;
49910;SDS011;35803;53.096;5.844;2023-04-15T01:38:45;8.45;;;5.07;;
49910;SDS011;35803;53.096;5.844;2023-04-15T01:41:24;7.55;;;4.22;;
49910;SDS011;35803;53.096;5.844;2023-04-15T01:43:51;11.40;;;4.40;;
49910;SDS011;35803;53.096;5.844;2023-04-15T01:46:17;9.85;;;4.53;;
49910;SDS011;35803;53.096;5.844;2023-04-15T01:48:43;10.93;;;5.00;;
49910;SDS011;35803;53.096;5.844;2023-04-15T01:51:08;9.77;;;4.72;;
49910;SDS011;35803;53.096;5.844;2023-04-15T01:53:34;9.60;;;5.28;;
49910;SDS011;35803;53.096;5.844;2023-04-15T01:56:03;11.27;;;5.55;;
49910;SDS011;35803;53.096;5.844;2023-04-15T01:58:29;9.57;;;5.15;;
49910;SDS011;35803;53.096;5.844;2023-04-15T02:00:55;10.00;;;5.50;;
49910;SDS011;35803;53.096;5.844;2023-04-15T02:03:21;11.20;;;5.32;;
49910;SDS011;35803;53.096;5.844;2023-04-15T02:05:46;10.52;;;5.70;;
49910;SDS011;35803;53.096;5.844;2023-04-15T02:08:12;12.93;;;5.45;;
49910;SDS011;35803;53.096;5.844;2023-04-15T02:10:37;10.68;;;5.82;;
49910;SDS011;35803;53.096;5.844;2023-04-15T02:13:03;12.07;;;5.57;;
49910;SDS011;35803;53.096;5.844;2023-04-15T02:15:29;12.35;;;5.30;;
49910;SDS011;35803;53.096;5.844;2023-04-15T02:17:54;10.38;;;5.78;;
49910;SDS011;35803;53.096;5.844;2023-04-15T02:20:20;10.20;;;6.00;;
49910;SDS011;35803;53.096;5.844;2023-04-15T02:22:46;10.45;;;5.53;;
49910;SDS011;35803;53.096;5.844;2023-04-15T02:25:12;10.18;;;5.38;;
49910;SDS011;35803;53.096;5.844;2023-04-15T02:27:38;10.73;;;5.43;;
49910;SDS011;35803;53.096;5.844;2023-04-15T02:30:04;9.68;;;5.60;;
49910;SDS011;35803;53.096;5.844;2023-04-15T02:32:32;12.18;;;5.82;;
49910;SDS011;35803;53.096;5.844;2023-04-15T02:35:01;11.05;;;5.80;;
49910;SDS011;35803;53.096;5.844;2023-04-15T02:37:31;9.52;;;5.93;;
49910;SDS011;35803;53.096;5.844;2023-04-15T02:39:56;10.63;;;5.82;;
49910;SDS011;35803;53.096;5.844;2023-04-15T02:42:22;13.25;;;6.13;;
49910;SDS011;35803;53.096;5.844;2023-04-15T02:44:47;10.13;;;6.00;;
49910;SDS011;35803;53.096;5.844;2023-04-15T02:47:13;13.95;;;6.25;;
49910;SDS011;35803;53.096;5.844;2023-04-15T02:49:40;12.48;;;6.18;;
49910;SDS011;35803;53.096;5.844;2023-04-15T02:52:05;11.88;;;6.07;;
49910;SDS011;35803;53.096;5.844;2023-04-15T02:54:31;10.25;;;6.03;;
49910;SDS011;35803;53.096;5.844;2023-04-15T02:56:58;11.68;;;6.22;;
49910;SDS011;35803;53.096;5.844;2023-04-15T02:59:24;12.55;;;6.80;;
49910;SDS011;35803;53.096;5.844;2023-04-15T03:01:49;13.20;;;6.70;;
49910;SDS011;35803;53.096;5.844;2023-04-15T03:04:15;11.98;;;6.90;;
49910;SDS011;35803;53.096;5.844;2023-04-15T03:06:40;11.63;;;6.45;;
49910;SDS011;35803;53.096;5.844;2023-04-15T03:09:06;12.25;;;6.43;;
49910;SDS011;35803;53.096;5.844;2023-04-15T03:11:32;12.55;;;6.57;;
49910;SDS011;35803;53.096;5.844;2023-04-15T03:13:57;16.80;;;6.47;;
49910;SDS011;35803;53.096;5.844;2023-04-15T03:16:23;12.38;;;6.40;;
49910;SDS011;35803;53.096;5.844;2023-04-15T03:18:49;12.30;;;6.13;;
49910;SDS011;35803;53.096;5.844;2023-04-15T03:21:14;13.10;;;7.15;;
49910;SDS011;35803;53.096;5.844;2023-04-15T03:23:40;13.63;;;6.88;;
49910;SDS011;35803;53.096;5.844;2023-04-15T03:26:05;12.50;;;6.72;;
49910;SDS011;35803;53.096;5.844;2023-04-15T03:28:31;10.68;;;6.18;;
49910;SDS011;35803;53.096;5.844;2023-04-15T03:30:57;10.13;;;6.03;;
49910;SDS011;35803;53.096;5.844;2023-04-15T03:33:22;15.13;;;6.60;;
49910;SDS011;35803;53.096;5.844;2023-04-15T03:35:49;11.73;;;6.18;;
49910;SDS011;35803;53.096;5.844;2023-04-15T03:38:15;14.52;;;7.03;;
49910;SDS011;35803;53.096;5.844;2023-04-15T03:40:40;14.75;;;7.28;;
49910;SDS011;35803;53.096;5.844;2023-04-15T03:43:06;12.75;;;6.78;;
49910;SDS011;35803;53.096;5.844;2023-04-15T03:45:32;12.48;;;6.60;;
49910;SDS011;35803;53.096;5.844;2023-04-15T03:47:57;15.40;;;6.97;;
49910;SDS011;35803;53.096;5.844;2023-04-15T03:50:23;13.50;;;6.95;;
49910;SDS011;35803;53.096;5.844;2023-04-15T03:52:48;14.65;;;7.40;;
49910;SDS011;35803;53.096;5.844;2023-04-15T03:55:16;12.80;;;6.82;;
49910;SDS011;35803;53.096;5.844;2023-04-15T03:57:42;15.10;;;7.40;;
49910;SDS011;35803;53.096;5.844;2023-04-15T04:00:07;14.70;;;7.57;;
49910;SDS011;35803;53.096;5.844;2023-04-15T04:02:34;12.52;;;6.85;;
49910;SDS011;35803;53.096;5.844;2023-04-15T04:05:00;14.43;;;6.55;;
49910;SDS011;35803;53.096;5.844;2023-04-15T04:07:26;14.55;;;7.47;;
49910;SDS011;35803;53.096;5.844;2023-04-15T04:09:51;13.77;;;7.35;;
49910;SDS011;35803;53.096;5.844;2023-04-15T04:12:17;13.75;;;7.57;;
49910;SDS011;35803;53.096;5.844;2023-04-15T04:14:42;15.95;;;7.60;;
49910;SDS011;35803;53.096;5.844;2023-04-15T04:17:08;12.45;;;8.02;;
49910;SDS011;35803;53.096;5.844;2023-04-15T04:19:34;15.27;;;7.93;;
49910;SDS011;35803;53.096;5.844;2023-04-15T04:22:05;16.33;;;7.95;;
49910;SDS011;35803;53.096;5.844;2023-04-15T04:24:31;17.73;;;8.18;;
49910;SDS011;35803;53.096;5.844;2023-04-15T04:26:56;17.23;;;8.52;;
49910;SDS011;35803;53.096;5.844;2023-04-15T04:29:22;13.55;;;7.75;;
49910;SDS011;35803;53.096;5.844;2023-04-15T04:31:48;14.35;;;7.53;;
49910;SDS011;35803;53.096;5.844;2023-04-15T04:34:14;20.25;;;9.05;;
49910;SDS011;35803;53.096;5.844;2023-04-15T04:36:40;18.08;;;8.93;;
49910;SDS011;35803;53.096;5.844;2023-04-15T04:39:11;18.85;;;8.57;;
49910;SDS011;35803;53.096;5.844;2023-04-15T04:41:37;18.25;;;9.25;;
49910;SDS011;35803;53.096;5.844;2023-04-15T04:44:02;16.42;;;8.05;;
49910;SDS011;35803;53.096;5.844;2023-04-15T04:46:28;18.02;;;8.38;;
49910;SDS011;35803;53.096;5.844;2023-04-15T04:48:53;18.48;;;9.50;;
49910;SDS011;35803;53.096;5.844;2023-04-15T04:51:19;18.50;;;8.65;;
49910;SDS011;35803;53.096;5.844;2023-04-15T04:53:45;19.40;;;9.13;;
49910;SDS011;35803;53.096;5.844;2023-04-15T04:56:10;17.70;;;8.55;;
49910;SDS011;35803;53.096;5.844;2023-04-15T04:58:36;16.92;;;9.20;;
49910;SDS011;35803;53.096;5.844;2023-04-15T05:01:02;15.20;;;7.95;;
49910;SDS011;35803;53.096;5.844;2023-04-15T05:03:27;16.98;;;8.48;;
49910;SDS011;35803;53.096;5.844;2023-04-15T05:05:53;15.50;;;8.70;;
49910;SDS011;35803;53.096;5.844;2023-04-15T05:08:18;17.60;;;8.82;;
49910;SDS011;35803;53.096;5.844;2023-04-15T05:10:44;21.67;;;8.68;;
49910;SDS011;35803;53.096;5.844;2023-04-15T05:13:10;18.60;;;9.02;;
49910;SDS011;35803;53.096;5.844;2023-04-15T05:15:36;19.40;;;8.70;;
49910;SDS011;35803;53.096;5.844;2023-04-15T05:18:03;13.93;;;7.57;;
49910;SDS011;35803;53.096;5.844;2023-04-15T05:20:29;13.80;;;7.93;;
49910;SDS011;35803;53.096;5.844;2023-04-15T05:22:55;14.13;;;8.02;;
49910;SDS011;35803;53.096;5.844;2023-04-15T05:25:20;14.35;;;8.18;;
49910;SDS011;35803;53.096;5.844;2023-04-15T05:27:46;15.00;;;8.05;;
49910;SDS011;35803;53.096;5.844;2023-04-15T05:30:11;16.98;;;7.93;;
49910;SDS011;35803;53.096;5.844;2023-04-15T05:32:37;15.70;;;8.18;;
49910;SDS011;35803;53.096;5.844;2023-04-15T05:35:03;16.80;;;9.40;;
49910;SDS011;35803;53.096;5.844;2023-04-15T05:37:28;15.52;;;7.63;;
49910;SDS011;35803;53.096;5.844;2023-04-15T05:39:54;16.92;;;8.95;;
49910;SDS011;35803;53.096;5.844;2023-04-15T05:42:20;16.00;;;8.30;;
49910;SDS011;35803;53.096;5.844;2023-04-15T05:44:46;15.32;;;7.90;;
49910;SDS011;35803;53.096;5.844;2023-04-15T05:47:11;17.13;;;8.20;;
49910;SDS011;35803;53.096;5.844;2023-04-15T05:49:37;16.02;;;8.18;;
49910;SDS011;35803;53.096;5.844;2023-04-15T05:52:03;15.73;;;8.15;;
49910;SDS011;35803;53.096;5.844;2023-04-15T05:54:28;16.13;;;8.27;;
49910;SDS011;35803;53.096;5.844;2023-04-15T05:56:54;15.60;;;8.23;;
49910;SDS011;35803;53.096;5.844;2023-04-15T05:59:21;16.42;;;8.02;;
49910;SDS011;35803;53.096;5.844;2023-04-15T06:01:47;15.63;;;8.00;;
49910;SDS011;35803;53.096;5.844;2023-04-15T06:04:13;17.15;;;8.00;;
49910;SDS011;35803;53.096;5.844;2023-04-15T06:06:39;13.52;;;7.53;;
49910;SDS011;35803;53.096;5.844;2023-04-15T06:09:05;13.75;;;7.78;;
49910;SDS011;35803;53.096;5.844;2023-04-15T06:11:30;15.75;;;7.80;;
49910;SDS011;35803;53.096;5.844;2023-04-15T06:13:56;14.77;;;7.57;;
49910;SDS011;35803;53.096;5.844;2023-04-15T06:16:21;13.90;;;7.65;;
49910;SDS011;35803;53.096;5.844;2023-04-15T06:18:47;13.20;;;7.10;;
49910;SDS011;35803;53.096;5.844;2023-04-15T06:21:13;13.07;;;7.07;;
49910;SDS011;35803;53.096;5.844;2023-04-15T06:23:38;13.52;;;7.00;;
49910;SDS011;35803;53.096;5.844;2023-04-15T06:26:05;14.52;;;7.65;;
49910;SDS011;35803;53.096;5.844;2023-04-15T06:28:31;15.10;;;7.75;;
49910;SDS011;35803;53.096;5.844;2023-04-15T06:31:03;15.57;;;8.00;;
49910;SDS011;35803;53.096;5.844;2023-04-15T06:33:30;13.75;;;7.32;;
49910;SDS011;35803;53.096;5.844;2023-04-15T06:35:55;10.88;;;6.50;;
49910;SDS011;35803;53.096;5.844;2023-04-15T06:38:21;12.90;;;6.65;;
49910;SDS011;35803;53.096;5.844;2023-04-15T06:40:47;13.20;;;7.20;;
49910;SDS011;35803;53.096;5.844;2023-04-15T06:43:12;13.07;;;6.65;;
49910;SDS011;35803;53.096;5.844;2023-04-15T06:45:38;12.75;;;6.82;;
49910;SDS011;35803;53.096;5.844;2023-04-15T06:48:03;11.32;;;6.90;;
49910;SDS011;35803;53.096;5.844;2023-04-15T06:50:30;11.55;;;6.80;;
49910;SDS011;35803;53.096;5.844;2023-04-15T06:52:55;11.32;;;7.00;;
49910;SDS011;35803;53.096;5.844;2023-04-15T06:55:21;12.30;;;6.65;;
49910;SDS011;35803;53.096;5.844;2023-04-15T06:57:47;12.73;;;6.22;;
49910;SDS011;35803;53.096;5.844;2023-04-15T07:00:12;10.35;;;6.05;;
49910;SDS011;35803;53.096;5.844;2023-04-15T07:02:38;10.65;;;5.72;;
49910;SDS011;35803;53.096;5.844;2023-04-15T07:05:04;10.55;;;5.45;;
49910;SDS011;35803;53.096;5.844;2023-04-15T07:07:31;9.48;;;6.05;;
49910;SDS011;35803;53.096;5.844;2023-04-15T07:09:56;9.02;;;5.68;;
49910;SDS011;35803;53.096;5.844;2023-04-15T07:12:22;11.25;;;5.88;;
49910;SDS011;35803;53.096;5.844;2023-04-15T07:14:47;10.10;;;5.93;;
49910;SDS011;35803;53.096;5.844;2023-04-15T07:17:13;11.20;;;5.75;;
49910;SDS011;35803;53.096;5.844;2023-04-15T07:19:39;11.60;;;5.95;;
49910;SDS011;35803;53.096;5.844;2023-04-15T07:22:04;11.75;;;6.00;;
49910;SDS011;35803;53.096;5.844;2023-04-15T07:24:30;10.88;;;5.72;;
49910;SDS011;35803;53.096;5.844;2023-04-15T07:26:56;10.65;;;5.90;;
49910;SDS011;35803;53.096;5.844;2023-04-15T07:29:24;11.85;;;5.78;;
49910;SDS011;35803;53.096;5.844;2023-04-15T07:31:51;10.07;;;5.90;;
49910;SDS011;35803;53.096;5.844;2023-04-15T07:34:17;11.02;;;5.55;;
49910;SDS011;35803;53.096;5.844;2023-04-15T07:36:43;10.70;;;5.78;;
49910;SDS011;35803;53.096;5.844;2023-04-15T07:39:10;8.55;;;5.10;;
49910;SDS011;35803;53.096;5.844;2023-04-15T07:41:36;7.30;;;4.28;;
49910;SDS011;35803;53.096;5.844;2023-04-15T07:44:02;9.18;;;5.10;;
49910;SDS011;35803;53.096;5.844;2023-04-15T07:46:28;5.95;;;3.83;;
49910;SDS011;35803;53.096;5.844;2023-04-15T07:48:53;5.88;;;4.13;;
49910;SDS011;35803;53.096;5.844;2023-04-15T07:51:19;6.18;;;3.30;;
49910;SDS011;35803;53.096;5.844;2023-04-15T07:53:48;4.65;;;3.30;;
49910;SDS011;35803;53.096;5.844;2023-04-15T07:56:14;6.18;;;3.50;;
49910;SDS011;35803;53.096;5.844;2023-04-15T07:58:40;5.80;;;3.38;;
49910;SDS011;35803;53.096;5.844;2023-04-15T08:01:06;4.55;;;3.05;;
49910;SDS011;35803;53.096;5.844;2023-04-15T08:03:32;5.93;;;3.55;;
49910;SDS011;35803;53.096;5.844;2023-04-15T08:05:57;5.57;;;3.50;;
49910;SDS011;35803;53.096;5.844;2023-04-15T08:08:23;5.82;;;3.60;;
49910;SDS011;35803;53.096;5.844;2023-04-15T08:10:49;6.25;;;3.30;;
49910;SDS011;35803;53.096;5.844;2023-04-15T08:13:15;6.03;;;2.80;;
49910;SDS011;35803;53.096;5.844;2023-04-15T08:15:44;4.72;;;3.17;;
49910;SDS011;35803;53.096;5.844;2023-04-15T08:18:09;4.78;;;2.85;;
49910;SDS011;35803;53.096;5.844;2023-04-15T08:20:35;5.22;;;3.10;;
49910;SDS011;35803;53.096;5.844;2023-04-15T08:23:03;5.32;;;3.28;;
49910;SDS011;35803;53.096;5.844;2023-04-15T08:25:28;3.58;;;2.53;;
49910;SDS011;35803;53.096;5.844;2023-04-15T08:27:54;2.72;;;2.45;;
49910;SDS011;35803;53.096;5.844;2023-04-15T08:30:21;4.00;;;2.33;;
49910;SDS011;35803;53.096;5.844;2023-04-15T08:32:48;4.03;;;2.70;;
49910;SDS011;35803;53.096;5.844;2023-04-15T08:35:14;4.90;;;2.25;;
49910;SDS011;35803;53.096;5.844;2023-04-15T08:37:40;4.43;;;2.50;;
49910;SDS011;35803;53.096;5.844;2023-04-15T08:40:05;3.72;;;2.25;;
49910;SDS011;35803;53.096;5.844;2023-04-15T08:42:35;4.45;;;2.40;;
49910;SDS011;35803;53.096;5.844;2023-04-15T08:45:03;3.90;;;2.67;;
49910;SDS011;35803;53.096;5.844;2023-04-15T08:47:29;4.63;;;2.58;;
49910;SDS011;35803;53.096;5.844;2023-04-15T08:49:57;4.18;;;2.67;;
49910;SDS011;35803;53.096;5.844;2023-04-15T08:52:24;3.88;;;2.38;;
49910;SDS011;35803;53.096;5.844;2023-04-15T08:54:51;4.57;;;2.60;;
49910;SDS011;35803;53.096;5.844;2023-04-15T08:57:20;5.55;;;2.97;;
49910;SDS011;35803;53.096;5.844;2023-04-15T08:59:48;4.80;;;3.00;;
49910;SDS011;35803;53.096;5.844;2023-04-15T09:02:14;4.43;;;2.85;;
49910;SDS011;35803;53.096;5.844;2023-04-15T09:04:40;5.07;;;3.22;;
49910;SDS011;35803;53.096;5.844;2023-04-15T09:07:06;5.70;;;3.40;;
49910;SDS011;35803;53.096;5.844;2023-04-15T09:09:32;6.13;;;3.03;;
49910;SDS011;35803;53.096;5.844;2023-04-15T09:11:57;4.18;;;2.80;;
49910;SDS011;35803;53.096;5.844;2023-04-15T09:14:27;6.63;;;3.10;;
49910;SDS011;35803;53.096;5.844;2023-04-15T09:17:00;4.95;;;2.60;;
49910;SDS011;35803;53.096;5.844;2023-04-15T09:19:27;3.83;;;2.50;;
49910;SDS011;35803;53.096;5.844;2023-04-15T09:21:53;4.90;;;2.63;;
49910;SDS011;35803;53.096;5.844;2023-04-15T09:24:22;4.38;;;2.53;;
49910;SDS011;35803;53.096;5.844;2023-04-15T09:26:52;3.10;;;2.08;;
49910;SDS011;35803;53.096;5.844;2023-04-15T09:29:19;3.05;;;1.90;;
49910;SDS011;35803;53.096;5.844;2023-04-15T09:31:45;3.38;;;2.65;;
49910;SDS011;35803;53.096;5.844;2023-04-15T09:34:10;8.52;;;2.40;;
49910;SDS011;35803;53.096;5.844;2023-04-15T09:39:11;6.53;;;2.75;;
49910;SDS011;35803;53.096;5.844;2023-04-15T09:41:36;4.82;;;2.38;;
49910;SDS011;35803;53.096;5.844;2023-04-15T09:44:02;3.53;;;2.30;;
49910;SDS011;35803;53.096;5.844;2023-04-15T09:46:43;3.22;;;2.08;;
49910;SDS011;35803;53.096;5.844;2023-04-15T09:49:10;5.00;;;2.28;;
49910;SDS011;35803;53.096;5.844;2023-04-15T09:51:36;4.78;;;2.20;;
49910;SDS011;35803;53.096;5.844;2023-04-15T09:54:02;4.25;;;2.22;;
49910;SDS011;35803;53.096;5.844;2023-04-15T09:56:33;3.33;;;2.00;;
49910;SDS011;35803;53.096;5.844;2023-04-15T09:59:01;2.75;;;1.77;;
49910;SDS011;35803;53.096;5.844;2023-04-15T10:01:27;2.88;;;2.00;;
49910;SDS011;35803;53.096;5.844;2023-04-15T10:03:53;2.75;;;1.80;;
49910;SDS011;35803;53.096;5.844;2023-04-15T10:06:22;2.72;;;1.40;;
49910;SDS011;35803;53.096;5.844;2023-04-15T10:08:48;1.73;;;1.30;;
49910;SDS011;35803;53.096;5.844;2023-04-15T10:11:14;2.53;;;1.50;;
49910;SDS011;35803;53.096;5.844;2023-04-15T10:13:41;1.40;;;1.30;;
49910;SDS011;35803;53.096;5.844;2023-04-15T10:18:41;3.45;;;1.65;;
49910;SDS011;35803;53.096;5.844;2023-04-15T10:21:08;1.80;;;1.30;;
49910;SDS011;35803;53.096;5.844;2023-04-15T10:23:33;4.05;;;1.50;;
49910;SDS011;35803;53.096;5.844;2023-04-15T10:26:00;1.88;;;1.25;;
49910;SDS011;35803;53.096;5.844;2023-04-15T10:28:27;1.33;;;1.17;;
49910;SDS011;35803;53.096;5.844;2023-04-15T10:30:52;2.03;;;1.30;;
49910;SDS011;35803;53.096;5.844;2023-04-15T10:33:19;2.38;;;1.20;;
49910;SDS011;35803;53.096;5.844;2023-04-15T10:35:45;1.33;;;1.20;;
49910;SDS011;35803;53.096;5.844;2023-04-15T10:38:31;1.92;;;1.00;;
49910;SDS011;35803;53.096;5.844;2023-04-15T10:46:33;1.25;;;1.10;;
49910;SDS011;35803;53.096;5.844;2023-04-15T10:49:12;2.63;;;1.20;;
49910;SDS011;35803;53.096;5.844;2023-04-15T10:51:45;1.33;;;1.10;;
49910;SDS011;35803;53.096;5.844;2023-04-15T10:54:31;2.50;;;1.17;;
49910;SDS011;35803;53.096;5.844;2023-04-15T10:59:28;1.40;;;1.10;;
49910;SDS011;35803;53.096;5.844;2023-04-15T11:01:55;1.15;;;0.85;;
49910;SDS011;35803;53.096;5.844;2023-04-15T11:12:50;2.47;;;1.40;;
49910;SDS011;35803;53.096;5.844;2023-04-15T11:17:51;1.83;;;1.30;;
49910;SDS011;35803;53.096;5.844;2023-04-15T11:20:17;2.67;;;1.60;;
49910;SDS011;35803;53.096;5.844;2023-04-15T11:22:49;2.33;;;1.10;;
49910;SDS011;35803;53.096;5.844;2023-04-15T11:25:25;1.45;;;1.35;;
49910;SDS011;35803;53.096;5.844;2023-04-15T11:27:52;2.13;;;1.50;;
49910;SDS011;35803;53.096;5.844;2023-04-15T11:30:22;1.63;;;1.13;;
49910;SDS011;35803;53.096;5.844;2023-04-15T11:32:49;4.00;;;1.38;;
49910;SDS011;35803;53.096;5.844;2023-04-15T11:35:16;1.42;;;1.10;;
49910;SDS011;35803;53.096;5.844;2023-04-15T11:37:43;1.77;;;1.10;;
49910;SDS011;35803;53.096;5.844;2023-04-15T11:40:09;2.08;;;1.25;;
49910;SDS011;35803;53.096;5.844;2023-04-15T11:42:35;3.60;;;1.27;;
49910;SDS011;35803;53.096;5.844;2023-04-15T11:45:09;1.27;;;1.17;;
49910;SDS011;35803;53.096;5.844;2023-04-15T11:47:36;2.30;;;1.30;;
49910;SDS011;35803;53.096;5.844;2023-04-15T11:50:15;2.08;;;1.50;;
49910;SDS011;35803;53.096;5.844;2023-04-15T11:55:19;2.67;;;1.60;;
49910;SDS011;35803;53.096;5.844;2023-04-15T11:57:45;2.83;;;1.50;;
49910;SDS011;35803;53.096;5.844;2023-04-15T12:00:11;3.13;;;1.50;;
49910;SDS011;35803;53.096;5.844;2023-04-15T12:02:37;3.05;;;1.17;;
49910;SDS011;35803;53.096;5.844;2023-04-15T12:05:07;2.58;;;1.30;;
49910;SDS011;35803;53.096;5.844;2023-04-15T12:07:55;2.78;;;1.40;;
49910;SDS011;35803;53.096;5.844;2023-04-15T12:10:25;1.85;;;1.00;;
49910;SDS011;35803;53.096;5.844;2023-04-15T12:12:51;2.92;;;1.30;;
49910;SDS011;35803;53.096;5.844;2023-04-15T12:15:20;3.00;;;1.30;;
49910;SDS011;35803;53.096;5.844;2023-04-15T12:17:46;2.45;;;1.17;;
49910;SDS011;35803;53.096;5.844;2023-04-15T12:20:12;1.95;;;0.93;;
49910;SDS011;35803;53.096;5.844;2023-04-15T12:22:38;1.67;;;1.13;;
49910;SDS011;35803;53.096;5.844;2023-04-15T12:25:03;1.95;;;0.93;;
49910;SDS011;35803;53.096;5.844;2023-04-15T12:27:30;2.42;;;1.10;;
49910;SDS011;35803;53.096;5.844;2023-04-15T12:30:05;2.95;;;1.20;;
49910;SDS011;35803;53.096;5.844;2023-04-15T12:32:35;3.28;;;1.23;;
49910;SDS011;35803;53.096;5.844;2023-04-15T12:35:01;3.58;;;1.33;;
49910;SDS011;35803;53.096;5.844;2023-04-15T12:37:26;3.55;;;1.38;;
49910;SDS011;35803;53.096;5.844;2023-04-15T12:39:52;4.65;;;1.00;;
49910;SDS011;35803;53.096;5.844;2023-04-15T12:42:18;5.28;;;1.40;;
49910;SDS011;35803;53.096;5.844;2023-04-15T12:44:44;2.40;;;1.25;;
49910;SDS011;35803;53.096;5.844;2023-04-15T12:47:10;3.58;;;1.40;;
49910;SDS011;35803;53.096;5.844;2023-04-15T12:49:36;2.70;;;1.10;;
49910;SDS011;35803;53.096;5.844;2023-04-15T12:52:02;1.55;;;1.10;;
49910;SDS011;35803;53.096;5.844;2023-04-15T12:54:28;2.97;;;1.10;;
49910;SDS011;35803;53.096;5.844;2023-04-15T12:56:54;4.53;;;1.35;;
49910;SDS011;35803;53.096;5.844;2023-04-15T12:59:20;1.42;;;1.10;;
49910;SDS011;35803;53.096;5.844;2023-04-15T13:01:52;2.38;;;1.02;;
49910;SDS011;35803;53.096;5.844;2023-04-15T13:04:17;3.17;;;1.10;;
49910;SDS011;35803;53.096;5.844;2023-04-15T13:06:43;3.13;;;1.17;;
49910;SDS011;35803;53.096;5.844;2023-04-15T13:09:09;4.65;;;1.30;;
49910;SDS011;35803;53.096;5.844;2023-04-15T13:11:35;5.57;;;1.17;;
49910;SDS011;35803;53.096;5.844;2023-04-15T13:14:04;1.48;;;0.77;;
49910;SDS011;35803;53.096;5.844;2023-04-15T13:16:31;3.47;;;1.00;;
49910;SDS011;35803;53.096;5.844;2023-04-15T13:19:00;2.95;;;1.55;;
49910;SDS011;35803;53.096;5.844;2023-04-15T13:21:27;2.08;;;0.95;;
49910;SDS011;35803;53.096;5.844;2023-04-15T13:24:00;3.85;;;1.10;;
49910;SDS011;35803;53.096;5.844;2023-04-15T13:28:52;2.78;;;0.80;;
49910;SDS011;35803;53.096;5.844;2023-04-15T13:31:17;8.70;;;1.20;;
49910;SDS011;35803;53.096;5.844;2023-04-15T13:33:43;3.72;;;1.15;;
49910;SDS011;35803;53.096;5.844;2023-04-15T13:36:08;4.50;;;1.05;;
49910;SDS011;35803;53.096;5.844;2023-04-15T13:38:34;4.03;;;1.02;;
49910;SDS011;35803;53.096;5.844;2023-04-15T13:41:00;4.22;;;1.02;;
49910;SDS011;35803;53.096;5.844;2023-04-15T13:43:25;2.60;;;0.80;;
49910;SDS011;35803;53.096;5.844;2023-04-15T13:45:51;3.00;;;1.00;;
49910;SDS011;35803;53.096;5.844;2023-04-15T13:48:17;4.57;;;1.25;;
49910;SDS011;35803;53.096;5.844;2023-04-15T13:50:42;1.83;;;0.90;;
49910;SDS011;35803;53.096;5.844;2023-04-15T13:53:10;3.03;;;1.10;;
49910;SDS011;35803;53.096;5.844;2023-04-15T13:55:36;7.72;;;1.10;;
49910;SDS011;35803;53.096;5.844;2023-04-15T13:58:05;3.60;;;1.00;;
49910;SDS011;35803;53.096;5.844;2023-04-15T14:00:32;2.58;;;0.95;;
49910;SDS011;35803;53.096;5.844;2023-04-15T14:02:57;2.90;;;1.10;;
49910;SDS011;35803;53.096;5.844;2023-04-15T14:05:23;3.50;;;1.05;;
49910;SDS011;35803;53.096;5.844;2023-04-15T14:07:48;1.88;;;1.10;;
49910;SDS011;35803;53.096;5.844;2023-04-15T14:10:14;2.42;;;1.00;;
49910;SDS011;35803;53.096;5.844;2023-04-15T14:12:40;3.90;;;0.80;;
49910;SDS011;35803;53.096;5.844;2023-04-15T14:15:05;3.58;;;1.23;;
49910;SDS011;35803;53.096;5.844;2023-04-15T14:17:31;3.78;;;1.20;;
49910;SDS011;35803;53.096;5.844;2023-04-15T14:19:57;3.08;;;0.93;;
49910;SDS011;35803;53.096;5.844;2023-04-15T14:22:23;4.45;;;1.13;;
49910;SDS011;35803;53.096;5.844;2023-04-15T14:24:48;2.60;;;0.82;;
49910;SDS011;35803;53.096;5.844;2023-04-15T14:27:17;4.53;;;0.95;;
49910;SDS011;35803;53.096;5.844;2023-04-15T14:29:42;3.53;;;0.90;;
49910;SDS011;35803;53.096;5.844;2023-04-15T14:32:08;4.00;;;0.95;;
49910;SDS011;35803;53.096;5.844;2023-04-15T14:34:33;3.38;;;0.80;;
49910;SDS011;35803;53.096;5.844;2023-04-15T14:36:59;5.05;;;1.05;;
49910;SDS011;35803;53.096;5.844;2023-04-15T14:39:24;4.20;;;0.80;;
49910;SDS011;35803;53.096;5.844;2023-04-15T14:41:54;5.38;;;0.80;;
49910;SDS011;35803;53.096;5.844;2023-04-15T14:44:20;2.45;;;0.80;;
49910;SDS011;35803;53.096;5.844;2023-04-15T14:46:45;3.40;;;0.80;;
49910;SDS011;35803;53.096;5.844;2023-04-15T14:49:11;5.55;;;1.38;;
49910;SDS011;35803;53.096;5.844;2023-04-15T14:51:37;2.30;;;0.80;;
49910;SDS011;35803;53.096;5.844;2023-04-15T14:54:02;3.50;;;1.13;;
49910;SDS011;35803;53.096;5.844;2023-04-15T14:56:28;2.15;;;0.70;;
49910;SDS011;35803;53.096;5.844;2023-04-15T14:58:53;2.53;;;0.80;;
49910;SDS011;35803;53.096;5.844;2023-04-15T15:01:19;1.85;;;0.70;;
49910;SDS011;35803;53.096;5.844;2023-04-15T15:03:45;3.47;;;0.88;;
49910;SDS011;35803;53.096;5.844;2023-04-15T15:06:11;3.70;;;1.75;;
49910;SDS011;35803;53.096;5.844;2023-04-15T15:08:36;1.35;;;0.88;;